createdAt,value
2017-06-23T09:52:43.422Z,30.27
2017-06-23T09:53:42.209Z,30.34
2017-06-23T09:54:42.621Z,30.27
2017-06-23T09:55:42.889Z,30.34
2017-06-23T09:56:42.126Z,30.43
2017-06-23T09:57:41.461Z,30.43
2017-06-23T09:58:41.474Z,30.47
2017-06-23T09:59:42.961Z,30.61
2017-06-23T10:00:42.785Z,30.68
2017-06-23T10:01:42.404Z,30.48
2017-06-23T10:02:42.525Z,30.34
2017-06-23T10:03:42.599Z,30.18
2017-06-23T10:04:42.964Z,30.13
2017-06-23T10:05:42.131Z,30.16
2017-06-23T10:06:42.583Z,30.27
2017-06-23T10:07:41.946Z,30.32
2017-06-23T10:08:42.629Z,30.34
2017-06-23T10:09:43.021Z,30.34
2017-06-23T10:10:41.996Z,30.19
2017-06-23T10:11:42.998Z,30.13
2017-06-23T10:12:42.192Z,30.13
2017-06-23T10:13:42.618Z,30.18
2017-06-23T10:14:41.870Z,30.08
2017-06-23T10:15:42.259Z,29.88
2017-06-23T10:16:42.634Z,29.68
2017-06-23T10:17:42.115Z,29.66
2017-06-23T10:18:42.861Z,29.76
2017-06-23T10:19:42.221Z,29.76
2017-06-23T10:20:42.273Z,29.73
2017-06-23T10:21:42.242Z,29.76
2017-06-23T10:22:42.344Z,29.9
2017-06-23T10:23:42.271Z,29.95
2017-06-23T10:24:42.263Z,30.1
2017-06-23T10:25:42.505Z,30.13
2017-06-23T10:26:41.962Z,30.13
2017-06-23T10:27:41.999Z,30.15
2017-06-23T10:28:42.004Z,30.12
2017-06-23T10:29:42.328Z,30.16
2017-06-23T10:30:42.313Z,30.16
2017-06-23T10:31:42.015Z,30.25
2017-06-23T10:32:42.318Z,30.23
2017-06-23T10:33:41.781Z,30.16
2017-06-23T10:34:42.336Z,30.15
2017-06-23T10:35:42.343Z,30.28
2017-06-23T10:36:41.722Z,30.23
2017-06-23T10:37:42.165Z,30.23
2017-06-23T11:43:36.104Z,31.94
2017-06-23T11:44:36.422Z,31.89
2017-06-23T11:45:36.749Z,31.85
2017-06-23T11:46:36.754Z,31.99
2017-06-23T11:50:29.458Z,32.07
2017-06-23T11:51:19.411Z,31.99
2017-06-23T11:52:19.363Z,31.93
2017-06-23T11:53:19.352Z,31.93
2017-06-23T11:54:20.604Z,31.89
2017-06-23T11:55:19.480Z,31.8
2017-06-23T11:56:19.070Z,31.81
2017-06-23T11:57:19.409Z,31.84
2017-06-23T11:58:19.093Z,31.76
2017-06-23T11:59:19.114Z,31.81
2017-06-23T12:00:19.258Z,31.76
2017-06-23T12:01:19.162Z,31.47
2017-06-23T12:02:19.424Z,31.44
2017-06-23T12:03:19.131Z,31.39
2017-06-23T12:04:19.440Z,31.51
2017-06-23T12:05:19.614Z,31.39
2017-06-23T12:06:19.541Z,31.34
2017-06-23T12:07:19.464Z,31.4
2017-06-23T12:08:18.893Z,31.42
2017-06-23T12:09:19.194Z,31.51
2017-06-23T12:10:19.272Z,31.4
2017-06-23T12:11:19.205Z,31.27
2017-06-23T12:12:19.510Z,31.28
2017-06-23T12:13:19.518Z,31.31
2017-06-23T12:14:19.524Z,31.37
2017-06-23T12:15:19.895Z,31.25
2017-06-23T12:16:19.278Z,31.43
2017-06-23T12:17:19.276Z,31.46
2017-06-23T12:18:19.241Z,31.43
2017-06-23T12:19:19.605Z,31.49
2017-06-23T12:20:19.470Z,31.47
2017-06-23T12:21:19.583Z,31.31
2017-06-23T12:22:19.277Z,31.42
2017-06-23T12:23:19.596Z,31.34
2017-06-23T12:24:19.619Z,31.4
2017-06-23T12:25:19.357Z,31.39
2017-06-23T12:26:19.624Z,31.4
2017-06-23T12:27:19.633Z,31.39
2017-06-23T12:28:19.643Z,31.34
2017-06-23T12:29:19.663Z,31.33
2017-06-23T12:30:19.522Z,31.42
2017-06-23T12:31:21.519Z,31.49
2017-06-23T12:32:19.349Z,31.52
2017-06-23T12:33:19.757Z,31.47
2017-06-23T12:34:19.366Z,31.47
2017-06-23T12:35:19.622Z,31.52
2017-06-23T12:36:19.707Z,31.56
2017-06-23T12:37:19.409Z,31.61
2017-06-23T12:38:19.728Z,31.61
2017-06-23T12:39:19.742Z,31.46
2017-06-23T12:40:19.720Z,31.34
2017-06-23T12:41:19.440Z,31.28
2017-06-23T12:42:19.117Z,31.29
2017-06-23T12:43:19.753Z,31.37
2017-06-23T12:44:19.758Z,31.54
2017-06-23T12:45:19.702Z,31.47
2017-06-23T12:46:19.540Z,31.51
2017-06-23T12:47:19.504Z,31.49
2017-06-23T12:48:19.487Z,31.62
2017-06-23T12:49:19.809Z,31.69
2017-06-23T12:50:19.696Z,31.81
2017-06-23T12:51:19.542Z,31.8
2017-06-23T12:52:19.865Z,31.76
2017-06-23T12:53:19.526Z,31.81
2017-06-23T12:54:19.841Z,31.97
2017-06-23T12:55:19.505Z,32.04
2017-06-23T12:56:19.576Z,32.11
2017-06-23T12:57:19.897Z,32
2017-06-23T12:58:19.873Z,31.9
2017-06-23T12:59:19.884Z,31.78
2017-06-23T13:00:19.498Z,31.65
2017-06-23T13:01:20.773Z,31.47
2017-06-23T13:02:19.904Z,31.56
2017-06-23T13:03:19.914Z,31.58
2017-06-23T13:04:19.927Z,31.64
2017-06-23T13:05:19.931Z,31.78
2017-06-23T13:06:19.937Z,31.77
2017-06-23T13:07:19.965Z,31.76
2017-06-23T13:08:19.963Z,31.87
2017-06-23T13:09:19.657Z,31.87
2017-06-23T13:10:20.067Z,31.89
2017-06-23T13:11:19.979Z,31.96
2017-06-23T13:12:19.676Z,31.9
2017-06-23T13:13:19.682Z,31.78
2017-06-23T13:14:20.009Z,31.7
2017-06-23T13:15:20.132Z,31.69
2017-06-23T13:16:20.075Z,31.66
2017-06-23T13:17:45.478Z,31.62
2017-06-23T13:18:20.034Z,31.49
2017-06-23T13:19:20.044Z,31.51
2017-06-23T13:20:19.761Z,31.51
2017-06-23T13:21:20.118Z,31.47
2017-06-23T13:22:20.067Z,31.47
2017-06-23T13:23:20.090Z,31.62
2017-06-23T13:24:20.093Z,31.61
2017-06-23T13:25:20.094Z,31.84
2017-06-23T13:26:19.817Z,31.7
2017-06-23T13:27:19.819Z,31.76
2017-06-23T13:28:20.122Z,31.85
2017-06-23T13:29:20.137Z,31.8
2017-06-23T13:30:20.135Z,31.77
2017-06-23T13:31:23.587Z,31.81
2017-06-23T13:32:20.156Z,31.81
2017-06-23T13:33:20.154Z,31.85
2017-06-23T13:34:19.848Z,31.78
2017-06-23T13:35:20.302Z,31.87
2017-06-23T13:36:19.865Z,31.89
2017-06-23T13:37:20.205Z,32
2017-06-23T13:38:19.570Z,32
2017-06-23T13:39:19.893Z,32.03
2017-06-23T13:40:20.214Z,31.89
2017-06-23T13:41:20.219Z,31.62
2017-06-23T13:42:20.250Z,31.51
2017-06-23T13:43:19.921Z,31.51
2017-06-23T13:44:19.941Z,31.59
2017-06-23T13:45:19.943Z,31.66
2017-06-23T13:46:19.978Z,31.76
2017-06-23T13:47:20.266Z,31.74
2017-06-23T13:48:19.978Z,31.84
2017-06-23T13:49:20.287Z,31.89
2017-06-23T13:50:20.294Z,31.92
2017-06-23T13:51:20.297Z,31.92
2017-06-23T13:52:20.099Z,31.69
2017-06-23T13:53:20.099Z,31.59
2017-06-23T13:54:20.010Z,31.62
2017-06-23T13:55:20.379Z,31.89
2017-06-23T13:56:20.026Z,31.96
2017-06-23T13:57:20.039Z,32.01
2017-06-23T13:58:20.356Z,32.07
2017-06-23T13:59:20.366Z,32.03
2017-06-23T14:00:20.376Z,31.94
2017-06-23T14:01:20.071Z,31.85
2017-06-23T14:02:20.493Z,31.9
2017-06-23T14:03:20.405Z,31.77
2017-06-23T14:04:19.793Z,31.85
2017-06-23T14:05:20.415Z,31.78
2017-06-23T14:06:20.418Z,31.76
2017-06-23T14:07:20.119Z,31.81
2017-06-23T14:08:20.433Z,31.81
2017-06-23T14:09:20.458Z,31.81
2017-06-23T14:10:20.452Z,31.77
2017-06-23T14:11:20.148Z,31.58
2017-06-23T14:12:20.473Z,31.54
2017-06-23T14:13:19.859Z,31.55
2017-06-23T14:14:20.499Z,31.62
2017-06-23T14:15:20.493Z,31.69
2017-06-23T14:16:20.500Z,31.71
2017-06-23T14:17:20.299Z,31.84
2017-06-23T14:18:20.521Z,31.89
2017-06-23T14:19:20.521Z,31.84
2017-06-23T14:20:20.538Z,31.84
2017-06-23T14:21:20.556Z,31.8
2017-06-23T14:22:20.570Z,31.66
2017-06-23T14:23:20.573Z,31.66
2017-06-23T14:24:20.278Z,31.65
2017-06-23T14:25:20.282Z,31.71
2017-06-23T14:26:20.598Z,31.77
2017-06-23T14:27:20.653Z,31.76
2017-06-23T14:28:20.600Z,31.77
2017-06-23T14:29:20.618Z,31.87
2017-06-23T14:30:20.265Z,31.84
2017-06-23T14:31:20.641Z,31.94
2017-06-23T14:32:21.482Z,32
2017-06-23T14:33:20.318Z,32
2017-06-23T14:34:20.655Z,31.9
2017-06-23T14:35:20.392Z,31.73
2017-06-23T14:36:20.671Z,31.77
2017-06-23T14:37:20.693Z,31.64
2017-06-23T14:38:20.680Z,31.71
2017-06-23T14:39:20.053Z,31.62
2017-06-23T14:40:20.750Z,31.56
2017-06-23T14:41:20.739Z,31.64
2017-06-23T14:42:20.767Z,31.66
2017-06-23T14:43:20.725Z,31.7
2017-06-23T14:44:20.756Z,31.84
2017-06-23T14:45:20.745Z,31.64
2017-06-23T14:46:20.734Z,31.66
2017-06-23T14:47:20.811Z,31.69
2017-06-23T14:48:20.770Z,31.59
2017-06-23T14:49:20.768Z,31.61
2017-06-23T14:50:20.792Z,31.64
2017-06-23T14:51:20.480Z,31.8
2017-06-23T14:52:20.477Z,31.87
2017-06-23T14:53:20.795Z,31.85
2017-06-23T14:54:20.485Z,31.97
2017-06-23T14:55:20.178Z,32.07
2017-06-23T14:56:20.822Z,32.04
2017-06-23T14:57:20.205Z,32.07
2017-06-23T14:58:20.850Z,31.97
2017-06-23T14:59:20.853Z,32.08
2017-06-23T15:00:20.848Z,32.12
2017-06-23T15:01:20.544Z,32.16
2017-06-23T15:02:20.869Z,32.22
2017-06-23T15:03:20.590Z,32.3
2017-06-23T15:04:20.570Z,32.29
2017-06-23T15:05:20.886Z,32.29
2017-06-23T15:06:20.580Z,32.37
2017-06-23T15:07:20.910Z,32.34
2017-06-23T15:08:20.621Z,32.37
2017-06-23T15:09:20.293Z,32.41
2017-06-23T15:10:20.925Z,32.09
2017-06-23T15:11:20.967Z,31.97
2017-06-23T15:12:20.653Z,31.77
2017-06-23T15:13:20.963Z,31.71
2017-06-23T15:14:20.967Z,31.65
2017-06-23T15:15:20.964Z,31.56
2017-06-23T15:16:20.974Z,31.54
2017-06-23T15:17:20.987Z,31.46
2017-06-23T15:18:21.046Z,31.39
2017-06-23T15:19:20.684Z,31.43
2017-06-23T15:20:21.007Z,31.36
2017-06-23T15:21:21.022Z,31.24
2017-06-23T15:22:20.753Z,31.28
2017-06-23T15:23:21.028Z,31.31
2017-06-23T15:24:21.041Z,31.28
2017-06-23T15:25:20.761Z,31.22
2017-06-23T15:26:20.771Z,31.09
2017-06-23T15:27:21.074Z,31.06
2017-06-23T15:28:21.076Z,31.15
2017-06-23T15:29:20.783Z,31.12
2017-06-23T15:37:10.614Z,31.21
2017-06-23T15:38:10.308Z,31.2
2017-06-23T15:39:10.688Z,31.06
2017-06-23T15:40:11.349Z,30.96
2017-06-23T15:41:10.330Z,30.87
2017-06-23T15:42:10.660Z,30.91
2017-06-23T15:43:10.659Z,30.91
2017-06-23T15:44:10.726Z,30.92
2017-06-23T15:45:11.034Z,30.85
2017-06-23T15:46:10.711Z,30.94
2017-06-23T15:47:12.297Z,30.9
2017-06-23T15:48:10.691Z,31.03
2017-06-23T15:49:10.707Z,30.96
2017-06-23T15:50:11.108Z,30.92
2017-06-23T15:51:10.734Z,30.84
2017-06-23T15:52:10.261Z,30.77
2017-06-23T15:53:10.768Z,30.72
2017-06-23T15:54:10.436Z,30.65
2017-06-23T15:55:11.242Z,30.59
2017-06-23T15:56:10.751Z,30.59
2017-06-23T15:57:10.758Z,30.51
2017-06-23T15:58:10.469Z,30.54
2017-06-23T15:59:10.779Z,30.68
2017-06-23T16:00:10.830Z,30.63
2017-06-23T16:01:10.476Z,30.59
2017-06-23T16:02:10.791Z,30.65
2017-06-23T16:03:10.988Z,30.61
2017-06-23T16:04:10.493Z,30.5
2017-06-23T16:05:11.138Z,30.51
2017-06-23T16:06:10.824Z,30.46
2017-06-23T16:07:11.127Z,30.47
2017-06-23T16:08:10.553Z,30.27
2017-06-23T16:09:10.846Z,30.21
2017-06-23T16:10:11.632Z,30.24
2017-06-23T16:11:10.881Z,30.35
2017-06-23T16:12:10.866Z,30.43
2017-06-23T16:13:10.875Z,30.34
2017-06-23T16:14:10.901Z,30.37
2017-06-23T16:15:11.276Z,30.25
2017-06-23T16:16:10.584Z,30.24
2017-06-23T16:17:10.900Z,30.32
2017-06-23T16:18:10.597Z,30.43
2017-06-23T16:19:10.600Z,30.44
2017-06-23T16:20:11.859Z,30.47
2017-06-23T16:21:10.929Z,30.47
2017-06-23T16:22:10.775Z,30.51
2017-06-23T16:23:10.958Z,30.44
2017-06-23T16:24:10.962Z,30.44
2017-06-23T16:25:11.397Z,30.47
2017-06-23T16:26:10.652Z,30.44
2017-06-23T16:27:10.967Z,30.44
2017-06-23T16:28:10.974Z,30.43
2017-06-23T16:29:11.016Z,30.47
2017-06-23T16:30:11.859Z,30.47
2017-06-23T16:31:10.692Z,30.5
2017-06-23T16:32:11.009Z,30.39
2017-06-23T16:33:11.027Z,30.43
2017-06-23T16:34:11.022Z,30.43
2017-06-23T16:35:12.235Z,30.4
2017-06-23T16:36:11.031Z,30.44
2017-06-23T16:37:12.044Z,30.37
2017-06-23T16:38:10.753Z,30.27
2017-06-23T16:39:11.078Z,30.16
2017-06-23T16:40:11.962Z,30.13
2017-06-23T16:41:10.752Z,30.16
2017-06-23T16:42:11.103Z,30.25
2017-06-23T16:43:10.770Z,30.18
2017-06-23T16:44:10.774Z,30.19
2017-06-23T16:45:11.579Z,30.23
2017-06-23T16:46:11.308Z,30.39
2017-06-23T16:47:10.804Z,30.32
2017-06-23T16:48:11.115Z,30.4
2017-06-23T16:49:10.807Z,30.44
2017-06-23T16:50:12.262Z,30.43
2017-06-23T16:51:11.163Z,30.44
2017-06-23T16:52:11.146Z,30.46
2017-06-23T16:53:10.838Z,30.44
2017-06-23T16:54:11.242Z,30.37
2017-06-23T16:55:11.834Z,30.35
2017-06-23T16:56:11.179Z,30.23
2017-06-23T16:57:11.193Z,30.13
2017-06-23T16:58:10.876Z,30.19
2017-06-23T16:59:11.220Z,30.1
2017-06-23T17:00:11.820Z,29.97
2017-06-23T17:01:11.207Z,30.02
2017-06-23T17:02:11.215Z,29.97
2017-06-23T17:03:11.221Z,29.9
2017-06-23T17:04:11.310Z,29.9
2017-06-23T17:05:11.902Z,29.94
2017-06-23T17:06:11.297Z,29.86
2017-06-23T17:07:11.255Z,29.76
2017-06-23T17:08:10.968Z,29.69
2017-06-23T17:09:11.293Z,29.79
2017-06-23T17:10:11.982Z,29.79
2017-06-23T17:11:10.971Z,29.76
2017-06-23T17:12:11.284Z,29.78
2017-06-23T17:13:11.024Z,29.82
2017-06-23T17:14:11.011Z,29.79
2017-06-23T17:15:11.688Z,29.79
2017-06-23T17:16:10.996Z,29.76
2017-06-23T17:17:11.331Z,29.75
2017-06-23T17:18:11.057Z,29.71
2017-06-23T17:19:11.351Z,29.69
2017-06-23T17:20:12.258Z,29.63
2017-06-23T17:21:11.344Z,29.65
2017-06-23T17:22:11.050Z,29.56
2017-06-23T17:23:11.407Z,29.54
2017-06-23T17:24:11.367Z,29.53
2017-06-23T17:25:12.028Z,29.56
2017-06-23T17:26:11.373Z,29.51
2017-06-23T17:27:11.068Z,29.56
2017-06-23T17:28:11.080Z,29.68
2017-06-23T17:29:11.106Z,29.71
2017-06-23T17:30:12.333Z,29.63
2017-06-23T17:31:11.416Z,29.72
2017-06-23T17:32:11.098Z,29.51
2017-06-23T17:33:11.422Z,29.49
2017-06-23T17:34:11.116Z,29.5
2017-06-23T17:35:12.321Z,29.41
2017-06-23T17:36:11.439Z,29.51
2017-06-23T17:37:11.449Z,29.39
2017-06-23T17:38:11.766Z,29.41
2017-06-23T17:39:11.467Z,29.38
2017-06-23T17:40:12.555Z,29.31
2017-06-23T17:41:11.473Z,29.27
2017-06-23T17:42:11.171Z,29.34
2017-06-23T17:43:11.174Z,29.35
2017-06-23T17:44:10.870Z,29.41
2017-06-23T17:45:11.604Z,29.38
2017-06-23T17:46:11.507Z,29.45
2017-06-23T17:47:11.514Z,29.45
2017-06-23T17:48:11.526Z,29.42
2017-06-23T17:49:11.548Z,29.44
2017-06-23T17:50:12.754Z,29.35
2017-06-23T17:51:11.536Z,29.26
2017-06-23T17:52:11.543Z,29.2
2017-06-23T17:53:10.972Z,29.19
2017-06-23T17:54:11.571Z,29.19
2017-06-23T17:55:12.615Z,29.14
2017-06-23T17:56:10.953Z,29.13
2017-06-23T17:57:11.576Z,29.19
2017-06-23T17:58:11.269Z,29.14
2017-06-23T17:59:10.968Z,29.13
2017-06-23T18:00:12.074Z,29.13
2017-06-23T18:01:11.287Z,29.22
2017-06-23T18:02:11.612Z,29.2
2017-06-23T18:03:11.621Z,29.17
2017-06-23T18:04:11.629Z,29.16
2017-06-23T18:05:12.577Z,29.08
2017-06-23T18:06:11.647Z,29.13
2017-06-23T18:07:11.658Z,28.98
2017-06-23T18:08:16.938Z,29.04
2017-06-23T18:09:11.667Z,29.04
2017-06-23T18:10:12.459Z,29.07
2017-06-23T18:11:11.698Z,28.98
2017-06-23T18:12:11.717Z,29.05
2017-06-23T18:13:11.675Z,28.94
2017-06-23T18:14:11.378Z,28.96
2017-06-23T18:15:11.875Z,28.88
2017-06-23T18:16:11.693Z,28.84
2017-06-23T18:17:11.727Z,28.75
2017-06-23T18:18:11.722Z,28.7
2017-06-23T18:19:11.431Z,28.64
2017-06-23T18:20:12.083Z,28.7
2017-06-23T18:21:11.539Z,28.7
2017-06-23T18:22:11.432Z,28.66
2017-06-23T18:23:11.743Z,28.7
2017-06-23T18:24:11.761Z,28.74
2017-06-23T18:25:12.476Z,28.64
2017-06-23T18:26:11.457Z,28.56
2017-06-23T18:27:11.454Z,28.57
2017-06-23T18:28:11.805Z,28.57
2017-06-23T18:29:11.474Z,28.49
2017-06-23T18:30:12.443Z,28.56
2017-06-23T18:31:11.488Z,28.52
2017-06-23T18:32:11.486Z,28.48
2017-06-23T18:33:11.805Z,28.39
2017-06-23T18:34:11.499Z,28.39
2017-06-23T18:35:11.926Z,28.42
2017-06-23T18:36:11.845Z,28.38
2017-06-23T18:37:11.551Z,28.41
2017-06-23T18:38:11.222Z,28.38
2017-06-23T18:39:11.553Z,28.22
2017-06-23T18:40:13.088Z,28.27
2017-06-23T18:41:11.847Z,28.26
2017-06-23T18:42:11.615Z,28.32
2017-06-23T18:43:12.799Z,28.27
2017-06-23T18:44:11.570Z,28.32
2017-06-23T18:45:13.327Z,28.27
2017-06-23T18:46:11.879Z,28.27
2017-06-23T18:47:11.967Z,28.22
2017-06-23T18:48:11.899Z,28.23
2017-06-23T18:49:11.278Z,28.19
2017-06-23T18:50:12.240Z,28.08
2017-06-23T18:51:11.911Z,28.08
2017-06-23T18:52:11.602Z,28.04
2017-06-23T18:53:11.923Z,27.98
2017-06-23T18:54:11.685Z,28.01
2017-06-23T18:55:13.187Z,27.87
2017-06-23T18:56:11.937Z,27.9
2017-06-23T18:57:11.951Z,27.87
2017-06-23T18:58:11.632Z,27.89
2017-06-23T18:59:11.964Z,27.87
2017-06-23T19:00:12.535Z,27.85
2017-06-23T19:01:11.992Z,27.85
2017-06-23T19:02:11.996Z,27.89
2017-06-23T19:03:11.754Z,27.77
2017-06-23T19:04:12.015Z,27.71
2017-06-23T19:05:12.812Z,27.78
2017-06-23T19:06:11.994Z,27.74
2017-06-23T19:07:11.754Z,27.71
2017-06-23T19:08:12.010Z,27.67
2017-06-23T19:09:13.447Z,27.63
2017-06-23T19:10:12.518Z,27.58
2017-06-23T19:11:12.028Z,27.55
2017-06-23T19:12:12.034Z,27.54
2017-06-23T19:13:12.033Z,27.64
2017-06-23T19:14:12.067Z,27.49
2017-06-23T19:15:13.073Z,27.44
2017-06-23T19:16:11.737Z,27.55
2017-06-23T19:17:12.062Z,27.47
2017-06-23T19:18:12.063Z,27.37
2017-06-23T19:19:12.071Z,27.4
2017-06-23T19:20:12.611Z,27.32
2017-06-23T19:21:12.086Z,27.3
2017-06-23T19:22:11.774Z,27.27
2017-06-23T19:23:12.089Z,27.29
2017-06-23T19:24:13.850Z,27.27
2017-06-23T19:25:12.657Z,27.2
2017-06-23T19:26:11.817Z,27.22
2017-06-23T19:27:12.115Z,27.17
2017-06-23T19:28:12.126Z,27.11
2017-06-23T19:29:12.124Z,27.07
2017-06-23T19:30:12.541Z,27.12
2017-06-23T19:31:12.136Z,27.05
2017-06-23T19:32:12.151Z,27
2017-06-23T19:33:11.842Z,27.02
2017-06-23T19:34:11.849Z,26.96
2017-06-23T19:35:13.335Z,26.92
2017-06-23T19:36:12.164Z,26.96
2017-06-23T19:37:12.177Z,26.97
2017-06-23T19:38:12.174Z,27
2017-06-23T19:39:12.180Z,26.97
2017-06-23T19:40:13.190Z,26.93
2017-06-23T19:41:12.191Z,26.84
2017-06-23T19:42:11.576Z,26.9
2017-06-23T19:43:12.204Z,26.88
2017-06-23T19:44:11.903Z,26.84
2017-06-23T19:45:12.683Z,26.81
2017-06-23T19:46:11.917Z,26.78
2017-06-23T19:47:12.229Z,26.78
2017-06-23T19:48:12.232Z,26.74
2017-06-23T19:49:12.236Z,26.74
2017-06-23T19:50:13.007Z,26.71
2017-06-23T19:51:11.622Z,26.74
2017-06-23T19:52:11.644Z,26.66
2017-06-23T19:53:12.251Z,26.63
2017-06-23T19:54:11.954Z,26.56
2017-06-23T19:55:14.832Z,26.58
2017-06-23T19:56:11.959Z,26.58
2017-06-23T19:57:12.277Z,26.6
2017-06-23T19:58:11.976Z,26.48
2017-06-23T19:59:12.295Z,26.55
2017-06-23T20:00:13.393Z,26.56
2017-06-23T20:01:12.025Z,26.47
2017-06-23T20:02:12.305Z,26.41
2017-06-23T20:03:12.011Z,26.47
2017-06-23T20:04:12.008Z,26.44
2017-06-23T20:05:12.532Z,26.47
2017-06-23T20:06:12.327Z,26.47
2017-06-23T20:07:12.331Z,26.4
2017-06-23T20:08:12.356Z,26.44
2017-06-23T20:09:12.344Z,26.41
2017-06-23T20:10:13.901Z,26.43
2017-06-23T20:11:12.056Z,26.37
